Impacts TAF Board INFO
FOR SITUATIONAL AWARENESS. NOT TO BE USED FOR FLIGHT PLANNING PURPOSES.
IDs:

KDCA - Washington/National, VA, US

Issued at 1144 UTC 22 Feb 2018
Updated at 1226 UTC 22 Feb 2018
Potential Impact None Slight Moderate High
Time1152Z 22/13Z 22/14Z 22/15Z 22/16Z 22/17Z 22/18Z 22/19Z 22/20Z 22/21Z 22/22Z 22/23Z 23/00Z 23/01Z>>
Type OBS PRVL PRVL PRVL PRVL PRVL PRVL PRVL PRVL PRVL PRVL PRVL PRVL PRVL
VIS 10 >6 5 5 5 5 5 5 5 5 5 5 5 5
CIG 25 20 15 15 15 8 8 8 8 8 8 8 8 8
Cover OVC OVC OVC OVC OVC OVC OVC OVC OVC OVC OVC OVC OVC OVC
FltCat MVFR MVFR MVFR MVFR MVFR IFR IFR IFR IFR IFR IFR IFR IFR IFR
WX -- VCSH -RA -DZ -RA -DZ -RA -DZ -RA -DZ -RA -DZ -RA -DZ -RA -DZ -RA -DZ -RA -DZ -RA -DZ -RA -DZ -RA -DZ
WDir 40 20 20 20 20 30 30 30 30 30 30 30 30 30
WSpd 8 8 7 7 7 7 7 7 7 7 7 7 7 7
WGst -- 16 -- -- -- -- -- -- -- -- -- -- -- --

Raw TAF
KDCA 221144Z 2212/2318 02008G16KT P6SM VCSH BKN020 OVC050
  FM221400 02007KT 5SM -RADZ BKN015 OVC025
  FM221700 03007KT 5SM -RADZ BKN008 OVC015
  FM230600 04005KT 2SM -RADZ BR BKN004 OVC008
  FM231100 08005KT 2SM -RADZ BKN004 OVC008
  FM231700 15005KT 5SM -RADZ BKN008 OVC015


Raw METAR
KDCA 221152Z 04008KT 10SM OVC025 13/05 A3045 RMK AO2 SLP311 T01330050 10194 20133 53011
KDCA 221052Z 03012KT 10SM OVC024 14/05 A3044 RMK AO2 SLP306 T01390050
KDCA 220952Z 04012KT 10SM OVC024 14/06 A3043 RMK AO2 SLP304 T01440056

METAR Board
Radar Display
Forecast Discussion

FOR SITUATIONAL AWARENESS. NOT TO BE USED FOR FLIGHT PLANNING PURPOSES.